sensor_id;sensor_type;location;lat;lon;timestamp;P1;durP1;ratioP1;P2;durP2;ratioP2
12482;SDS011;6306;47.134;15.344;2023-02-22T00:00:51;4.07;;;3.30;;
12482;SDS011;6306;47.134;15.344;2023-02-22T00:05:48;4.40;;;2.77;;
12482;SDS011;6306;47.134;15.344;2023-02-22T00:08:18;5.93;;;4.20;;
12482;SDS011;6306;47.134;15.344;2023-02-22T00:10:44;5.27;;;2.87;;
12482;SDS011;6306;47.134;15.344;2023-02-22T00:13:12;5.97;;;3.37;;
12482;SDS011;6306;47.134;15.344;2023-02-22T00:15:38;4.20;;;2.60;;
12482;SDS011;6306;47.134;15.344;2023-02-22T00:18:08;3.70;;;2.70;;
12482;SDS011;6306;47.134;15.344;2023-02-22T00:20:35;6.07;;;2.20;;
12482;SDS011;6306;47.134;15.344;2023-02-22T00:23:05;7.97;;;2.87;;
12482;SDS011;6306;47.134;15.344;2023-02-22T00:25:31;3.37;;;2.30;;
12482;SDS011;6306;47.134;15.344;2023-02-22T00:27:58;4.60;;;1.93;;
12482;SDS011;6306;47.134;15.344;2023-02-22T00:30:25;3.50;;;2.20;;
12482;SDS011;6306;47.134;15.344;2023-02-22T00:32:53;5.90;;;2.97;;
12482;SDS011;6306;47.134;15.344;2023-02-22T00:35:20;4.63;;;2.63;;
12482;SDS011;6306;47.134;15.344;2023-02-22T00:37:47;3.20;;;2.60;;
12482;SDS011;6306;47.134;15.344;2023-02-22T00:40:15;3.50;;;2.90;;
12482;SDS011;6306;47.134;15.344;2023-02-22T00:42:41;2.77;;;2.30;;
12482;SDS011;6306;47.134;15.344;2023-02-22T00:45:08;3.80;;;2.93;;
12482;SDS011;6306;47.134;15.344;2023-02-22T00:47:34;4.40;;;2.47;;
12482;SDS011;6306;47.134;15.344;2023-02-22T00:50:00;4.20;;;2.63;;
12482;SDS011;6306;47.134;15.344;2023-02-22T00:52:26;2.87;;;2.40;;
12482;SDS011;6306;47.134;15.344;2023-02-22T00:54:53;3.20;;;2.87;;
12482;SDS011;6306;47.134;15.344;2023-02-22T00:57:20;7.07;;;2.23;;
12482;SDS011;6306;47.134;15.344;2023-02-22T00:59:46;3.13;;;1.80;;
12482;SDS011;6306;47.134;15.344;2023-02-22T01:02:12;2.40;;;2.07;;
12482;SDS011;6306;47.134;15.344;2023-02-22T01:04:39;2.60;;;1.43;;
12482;SDS011;6306;47.134;15.344;2023-02-22T01:07:05;4.20;;;2.17;;
12482;SDS011;6306;47.134;15.344;2023-02-22T01:09:31;5.23;;;2.30;;
12482;SDS011;6306;47.134;15.344;2023-02-22T01:11:57;3.20;;;1.83;;
12482;SDS011;6306;47.134;15.344;2023-02-22T01:14:23;2.10;;;1.70;;
12482;SDS011;6306;47.134;15.344;2023-02-22T01:16:51;4.60;;;2.20;;
12482;SDS011;6306;47.134;15.344;2023-02-22T01:19:18;4.33;;;2.30;;
12482;SDS011;6306;47.134;15.344;2023-02-22T01:21:44;6.03;;;2.60;;
12482;SDS011;6306;47.134;15.344;2023-02-22T01:24:11;3.23;;;2.10;;
12482;SDS011;6306;47.134;15.344;2023-02-22T01:26:40;2.23;;;1.97;;
12482;SDS011;6306;47.134;15.344;2023-02-22T01:29:06;1.77;;;1.57;;
12482;SDS011;6306;47.134;15.344;2023-02-22T01:31:32;3.10;;;2.23;;
12482;SDS011;6306;47.134;15.344;2023-02-22T01:33:58;3.60;;;1.80;;
12482;SDS011;6306;47.134;15.344;2023-02-22T01:36:24;5.23;;;1.73;;
12482;SDS011;6306;47.134;15.344;2023-02-22T01:38:51;2.40;;;1.70;;
12482;SDS011;6306;47.134;15.344;2023-02-22T01:41:17;2.50;;;1.23;;
12482;SDS011;6306;47.134;15.344;2023-02-22T01:43:43;2.50;;;1.70;;
12482;SDS011;6306;47.134;15.344;2023-02-22T01:48:46;3.53;;;1.60;;
12482;SDS011;6306;47.134;15.344;2023-02-22T01:51:24;5.77;;;1.47;;
12482;SDS011;6306;47.134;15.344;2023-02-22T01:53:52;2.40;;;1.90;;
12482;SDS011;6306;47.134;15.344;2023-02-22T01:56:20;7.53;;;2.20;;
12482;SDS011;6306;47.134;15.344;2023-02-22T01:58:48;3.03;;;1.90;;
12482;SDS011;6306;47.134;15.344;2023-02-22T02:01:15;2.50;;;1.53;;
12482;SDS011;6306;47.134;15.344;2023-02-22T02:03:42;2.20;;;1.70;;
12482;SDS011;6306;47.134;15.344;2023-02-22T02:06:11;2.00;;;1.60;;
12482;SDS011;6306;47.134;15.344;2023-02-22T02:11:05;2.13;;;1.70;;
12482;SDS011;6306;47.134;15.344;2023-02-22T02:13:32;2.03;;;1.37;;
12482;SDS011;6306;47.134;15.344;2023-02-22T02:15:58;2.20;;;1.73;;
12482;SDS011;6306;47.134;15.344;2023-02-22T02:18:25;2.60;;;1.77;;
12482;SDS011;6306;47.134;15.344;2023-02-22T02:21:14;1.70;;;1.60;;
12482;SDS011;6306;47.134;15.344;2023-02-22T02:24:01;2.97;;;1.43;;
12482;SDS011;6306;47.134;15.344;2023-02-22T02:34:40;1.80;;;1.70;;
12482;SDS011;6306;47.134;15.344;2023-02-22T02:37:11;12.37;;;1.67;;
12482;SDS011;6306;47.134;15.344;2023-02-22T02:42:17;3.60;;;1.93;;
12482;SDS011;6306;47.134;15.344;2023-02-22T02:44:47;7.70;;;2.30;;
12482;SDS011;6306;47.134;15.344;2023-02-22T02:47:19;2.17;;;1.80;;
12482;SDS011;6306;47.134;15.344;2023-02-22T02:52:18;3.00;;;2.23;;
12482;SDS011;6306;47.134;15.344;2023-02-22T02:54:46;3.40;;;1.67;;
12482;SDS011;6306;47.134;15.344;2023-02-22T02:57:13;8.97;;;1.97;;
12482;SDS011;6306;47.134;15.344;2023-02-22T02:59:39;3.90;;;2.40;;
12482;SDS011;6306;47.134;15.344;2023-02-22T03:14:54;2.70;;;1.90;;
12482;SDS011;6306;47.134;15.344;2023-02-22T03:17:31;5.90;;;1.67;;
12482;SDS011;6306;47.134;15.344;2023-02-22T03:20:03;1.47;;;1.37;;
12482;SDS011;6306;47.134;15.344;2023-02-22T03:22:36;1.47;;;1.30;;
12482;SDS011;6306;47.134;15.344;2023-02-22T03:25:09;1.07;;;0.90;;
12482;SDS011;6306;47.134;15.344;2023-02-22T03:27:42;2.97;;;1.57;;
12482;SDS011;6306;47.134;15.344;2023-02-22T03:30:11;3.60;;;1.73;;
12482;SDS011;6306;47.134;15.344;2023-02-22T03:32:39;2.53;;;1.40;;
12482;SDS011;6306;47.134;15.344;2023-02-22T03:35:09;2.80;;;1.70;;
12482;SDS011;6306;47.134;15.344;2023-02-22T03:37:40;3.53;;;2.07;;
12482;SDS011;6306;47.134;15.344;2023-02-22T03:40:09;2.13;;;1.53;;
12482;SDS011;6306;47.134;15.344;2023-02-22T03:42:41;2.83;;;1.23;;
12482;SDS011;6306;47.134;15.344;2023-02-22T03:45:08;1.70;;;1.60;;
12482;SDS011;6306;47.134;15.344;2023-02-22T03:47:36;3.33;;;1.90;;
12482;SDS011;6306;47.134;15.344;2023-02-22T03:50:25;2.23;;;1.67;;
12482;SDS011;6306;47.134;15.344;2023-02-22T03:52:50;2.53;;;1.50;;
12482;SDS011;6306;47.134;15.344;2023-02-22T03:55:17;3.37;;;1.30;;
12482;SDS011;6306;47.134;15.344;2023-02-22T03:57:50;2.37;;;1.47;;
12482;SDS011;6306;47.134;15.344;2023-02-22T04:00:21;1.90;;;1.37;;
12482;SDS011;6306;47.134;15.344;2023-02-22T04:02:47;2.77;;;1.33;;
12482;SDS011;6306;47.134;15.344;2023-02-22T04:05:14;2.80;;;1.50;;
12482;SDS011;6306;47.134;15.344;2023-02-22T04:07:41;3.83;;;1.40;;
12482;SDS011;6306;47.134;15.344;2023-02-22T04:10:07;2.40;;;1.30;;
12482;SDS011;6306;47.134;15.344;2023-02-22T04:12:34;2.27;;;1.70;;
12482;SDS011;6306;47.134;15.344;2023-02-22T04:15:00;3.60;;;1.70;;
12482;SDS011;6306;47.134;15.344;2023-02-22T04:17:26;1.23;;;1.13;;
12482;SDS011;6306;47.134;15.344;2023-02-22T04:19:53;2.27;;;1.97;;
12482;SDS011;6306;47.134;15.344;2023-02-22T04:22:19;3.20;;;1.50;;
12482;SDS011;6306;47.134;15.344;2023-02-22T04:24:45;3.53;;;1.67;;
12482;SDS011;6306;47.134;15.344;2023-02-22T04:27:13;3.30;;;2.40;;
12482;SDS011;6306;47.134;15.344;2023-02-22T04:29:39;2.00;;;1.80;;
12482;SDS011;6306;47.134;15.344;2023-02-22T04:32:05;4.77;;;2.07;;
12482;SDS011;6306;47.134;15.344;2023-02-22T04:34:31;5.23;;;2.53;;
12482;SDS011;6306;47.134;15.344;2023-02-22T04:36:57;5.50;;;2.50;;
12482;SDS011;6306;47.134;15.344;2023-02-22T04:39:23;3.80;;;2.73;;
12482;SDS011;6306;47.134;15.344;2023-02-22T04:41:49;2.80;;;1.90;;
12482;SDS011;6306;47.134;15.344;2023-02-22T04:44:15;2.83;;;1.73;;
12482;SDS011;6306;47.134;15.344;2023-02-22T04:46:41;2.67;;;1.50;;
12482;SDS011;6306;47.134;15.344;2023-02-22T04:49:07;1.50;;;1.40;;
12482;SDS011;6306;47.134;15.344;2023-02-22T04:51:33;1.73;;;1.63;;
12482;SDS011;6306;47.134;15.344;2023-02-22T04:54:00;8.70;;;3.17;;
12482;SDS011;6306;47.134;15.344;2023-02-22T04:56:26;2.87;;;1.20;;
12482;SDS011;6306;47.134;15.344;2023-02-22T04:58:52;9.60;;;1.97;;
12482;SDS011;6306;47.134;15.344;2023-02-22T05:01:18;2.87;;;1.50;;
12482;SDS011;6306;47.134;15.344;2023-02-22T05:03:44;2.70;;;1.63;;
12482;SDS011;6306;47.134;15.344;2023-02-22T05:06:10;5.63;;;2.10;;
12482;SDS011;6306;47.134;15.344;2023-02-22T05:08:37;11.90;;;2.70;;
12482;SDS011;6306;47.134;15.344;2023-02-22T05:11:03;3.60;;;2.30;;
12482;SDS011;6306;47.134;15.344;2023-02-22T05:13:29;8.37;;;2.33;;
12482;SDS011;6306;47.134;15.344;2023-02-22T05:15:55;2.73;;;1.97;;
12482;SDS011;6306;47.134;15.344;2023-02-22T05:18:21;6.00;;;2.80;;
12482;SDS011;6306;47.134;15.344;2023-02-22T05:20:47;3.40;;;2.10;;
12482;SDS011;6306;47.134;15.344;2023-02-22T05:23:13;2.27;;;2.00;;
12482;SDS011;6306;47.134;15.344;2023-02-22T05:25:39;7.70;;;2.40;;
12482;SDS011;6306;47.134;15.344;2023-02-22T05:28:12;3.73;;;1.80;;
12482;SDS011;6306;47.134;15.344;2023-02-22T05:30:38;3.70;;;2.50;;
12482;SDS011;6306;47.134;15.344;2023-02-22T05:33:05;3.67;;;1.90;;
12482;SDS011;6306;47.134;15.344;2023-02-22T05:35:31;4.70;;;2.43;;
12482;SDS011;6306;47.134;15.344;2023-02-22T05:37:57;5.47;;;2.10;;
12482;SDS011;6306;47.134;15.344;2023-02-22T05:40:26;6.03;;;2.40;;
12482;SDS011;6306;47.134;15.344;2023-02-22T05:42:52;3.33;;;2.10;;
12482;SDS011;6306;47.134;15.344;2023-02-22T05:45:19;5.43;;;2.77;;
12482;SDS011;6306;47.134;15.344;2023-02-22T05:47:45;4.60;;;2.57;;
12482;SDS011;6306;47.134;15.344;2023-02-22T05:50:11;8.00;;;3.10;;
12482;SDS011;6306;47.134;15.344;2023-02-22T05:52:37;2.97;;;2.30;;
12482;SDS011;6306;47.134;15.344;2023-02-22T05:55:04;5.33;;;1.90;;
12482;SDS011;6306;47.134;15.344;2023-02-22T05:57:30;5.07;;;3.27;;
12482;SDS011;6306;47.134;15.344;2023-02-22T05:59:56;2.70;;;2.03;;
12482;SDS011;6306;47.134;15.344;2023-02-22T06:02:22;6.07;;;2.43;;
12482;SDS011;6306;47.134;15.344;2023-02-22T06:04:48;4.87;;;2.23;;
12482;SDS011;6306;47.134;15.344;2023-02-22T06:07:14;7.50;;;2.40;;
12482;SDS011;6306;47.134;15.344;2023-02-22T06:09:40;6.40;;;3.93;;
12482;SDS011;6306;47.134;15.344;2023-02-22T06:12:07;8.60;;;3.60;;
12482;SDS011;6306;47.134;15.344;2023-02-22T06:14:33;5.43;;;3.20;;
12482;SDS011;6306;47.134;15.344;2023-02-22T06:16:59;10.87;;;3.83;;
12482;SDS011;6306;47.134;15.344;2023-02-22T06:19:26;7.27;;;3.43;;
12482;SDS011;6306;47.134;15.344;2023-02-22T06:21:53;6.87;;;2.53;;
12482;SDS011;6306;47.134;15.344;2023-02-22T06:24:20;8.43;;;3.17;;
12482;SDS011;6306;47.134;15.344;2023-02-22T06:26:50;9.33;;;3.60;;
12482;SDS011;6306;47.134;15.344;2023-02-22T06:29:19;8.50;;;3.10;;
12482;SDS011;6306;47.134;15.344;2023-02-22T06:31:45;6.30;;;4.00;;
12482;SDS011;6306;47.134;15.344;2023-02-22T06:34:11;6.33;;;3.47;;
12482;SDS011;6306;47.134;15.344;2023-02-22T06:36:37;6.57;;;4.87;;
12482;SDS011;6306;47.134;15.344;2023-02-22T06:39:03;11.70;;;5.40;;
12482;SDS011;6306;47.134;15.344;2023-02-22T06:41:29;11.63;;;5.70;;
12482;SDS011;6306;47.134;15.344;2023-02-22T06:43:55;17.60;;;6.23;;
12482;SDS011;6306;47.134;15.344;2023-02-22T06:46:21;9.10;;;5.40;;
12482;SDS011;6306;47.134;15.344;2023-02-22T06:48:47;17.57;;;5.20;;
12482;SDS011;6306;47.134;15.344;2023-02-22T06:51:15;7.60;;;5.70;;
12482;SDS011;6306;47.134;15.344;2023-02-22T06:53:41;8.93;;;6.93;;
12482;SDS011;6306;47.134;15.344;2023-02-22T06:56:07;9.47;;;6.00;;
12482;SDS011;6306;47.134;15.344;2023-02-22T06:58:33;9.23;;;5.13;;
12482;SDS011;6306;47.134;15.344;2023-02-22T07:00:59;7.10;;;5.23;;
12482;SDS011;6306;47.134;15.344;2023-02-22T07:03:27;6.93;;;5.30;;
12482;SDS011;6306;47.134;15.344;2023-02-22T07:05:53;7.87;;;5.57;;
12482;SDS011;6306;47.134;15.344;2023-02-22T07:08:19;11.80;;;5.60;;
12482;SDS011;6306;47.134;15.344;2023-02-22T07:10:45;8.00;;;4.50;;
12482;SDS011;6306;47.134;15.344;2023-02-22T07:13:14;7.13;;;4.83;;
12482;SDS011;6306;47.134;15.344;2023-02-22T07:15:40;4.63;;;3.80;;
12482;SDS011;6306;47.134;15.344;2023-02-22T07:18:06;9.23;;;4.43;;
12482;SDS011;6306;47.134;15.344;2023-02-22T07:20:32;6.70;;;4.30;;
12482;SDS011;6306;47.134;15.344;2023-02-22T07:22:58;8.63;;;6.00;;
12482;SDS011;6306;47.134;15.344;2023-02-22T07:25:25;10.23;;;5.93;;
12482;SDS011;6306;47.134;15.344;2023-02-22T07:27:51;10.07;;;6.10;;
12482;SDS011;6306;47.134;15.344;2023-02-22T07:30:24;6.10;;;5.00;;
12482;SDS011;6306;47.134;15.344;2023-02-22T07:32:54;9.00;;;5.60;;
12482;SDS011;6306;47.134;15.344;2023-02-22T07:35:21;8.67;;;5.97;;
12482;SDS011;6306;47.134;15.344;2023-02-22T07:37:48;14.43;;;6.43;;
12482;SDS011;6306;47.134;15.344;2023-02-22T07:40:14;8.87;;;6.20;;
12482;SDS011;6306;47.134;15.344;2023-02-22T07:45:16;13.97;;;8.50;;
12482;SDS011;6306;47.134;15.344;2023-02-22T07:47:42;15.53;;;9.20;;
12482;SDS011;6306;47.134;15.344;2023-02-22T07:50:08;16.43;;;7.80;;
12482;SDS011;6306;47.134;15.344;2023-02-22T07:52:34;9.30;;;6.97;;
12482;SDS011;6306;47.134;15.344;2023-02-22T07:55:01;12.30;;;5.87;;
12482;SDS011;6306;47.134;15.344;2023-02-22T07:57:27;10.20;;;5.13;;
12482;SDS011;6306;47.134;15.344;2023-02-22T07:59:53;7.20;;;5.10;;
12482;SDS011;6306;47.134;15.344;2023-02-22T08:02:19;9.57;;;5.03;;
12482;SDS011;6306;47.134;15.344;2023-02-22T08:04:45;7.83;;;4.50;;
12482;SDS011;6306;47.134;15.344;2023-02-22T08:07:11;4.07;;;3.47;;
12482;SDS011;6306;47.134;15.344;2023-02-22T08:09:37;10.00;;;5.50;;
12482;SDS011;6306;47.134;15.344;2023-02-22T08:12:03;8.40;;;4.80;;
12482;SDS011;6306;47.134;15.344;2023-02-22T08:14:30;9.90;;;5.70;;
12482;SDS011;6306;47.134;15.344;2023-02-22T08:16:56;8.97;;;5.50;;
12482;SDS011;6306;47.134;15.344;2023-02-22T08:19:21;17.23;;;5.30;;
12482;SDS011;6306;47.134;15.344;2023-02-22T08:21:48;14.00;;;5.30;;
12482;SDS011;6306;47.134;15.344;2023-02-22T08:24:14;10.90;;;5.57;;
12482;SDS011;6306;47.134;15.344;2023-02-22T08:26:43;13.20;;;4.97;;
12482;SDS011;6306;47.134;15.344;2023-02-22T08:29:10;14.77;;;5.63;;
12482;SDS011;6306;47.134;15.344;2023-02-22T08:31:38;6.97;;;4.63;;
12482;SDS011;6306;47.134;15.344;2023-02-22T08:34:04;9.17;;;5.10;;
12482;SDS011;6306;47.134;15.344;2023-02-22T08:36:30;8.00;;;5.47;;
12482;SDS011;6306;47.134;15.344;2023-02-22T08:38:57;6.70;;;4.20;;
12482;SDS011;6306;47.134;15.344;2023-02-22T08:41:23;8.93;;;3.87;;
12482;SDS011;6306;47.134;15.344;2023-02-22T08:43:49;8.87;;;4.70;;
12482;SDS011;6306;47.134;15.344;2023-02-22T08:46:15;5.83;;;3.30;;
12482;SDS011;6306;47.134;15.344;2023-02-22T08:48:48;7.73;;;4.27;;
12482;SDS011;6306;47.134;15.344;2023-02-22T08:51:14;10.83;;;4.50;;
12482;SDS011;6306;47.134;15.344;2023-02-22T08:53:40;9.60;;;4.33;;
12482;SDS011;6306;47.134;15.344;2023-02-22T08:56:07;13.40;;;4.63;;
12482;SDS011;6306;47.134;15.344;2023-02-22T08:58:33;7.27;;;4.13;;
12482;SDS011;6306;47.134;15.344;2023-02-22T09:00:59;9.13;;;4.27;;
12482;SDS011;6306;47.134;15.344;2023-02-22T09:03:25;11.07;;;4.90;;
12482;SDS011;6306;47.134;15.344;2023-02-22T09:05:52;7.43;;;4.50;;
12482;SDS011;6306;47.134;15.344;2023-02-22T09:08:18;7.00;;;4.90;;
12482;SDS011;6306;47.134;15.344;2023-02-22T09:10:44;13.30;;;4.53;;
12482;SDS011;6306;47.134;15.344;2023-02-22T09:13:10;9.43;;;5.27;;
12482;SDS011;6306;47.134;15.344;2023-02-22T09:15:36;7.57;;;5.17;;
12482;SDS011;6306;47.134;15.344;2023-02-22T09:18:04;6.93;;;4.40;;
12482;SDS011;6306;47.134;15.344;2023-02-22T09:20:32;5.50;;;4.27;;
12482;SDS011;6306;47.134;15.344;2023-02-22T09:23:02;6.03;;;4.03;;
12482;SDS011;6306;47.134;15.344;2023-02-22T09:25:29;6.23;;;4.80;;
12482;SDS011;6306;47.134;15.344;2023-02-22T09:27:55;8.40;;;4.77;;
12482;SDS011;6306;47.134;15.344;2023-02-22T09:32:51;7.47;;;5.43;;
12482;SDS011;6306;47.134;15.344;2023-02-22T09:35:18;8.33;;;4.90;;
12482;SDS011;6306;47.134;15.344;2023-02-22T09:37:44;8.37;;;4.60;;
12482;SDS011;6306;47.134;15.344;2023-02-22T09:40:14;9.47;;;5.83;;
12482;SDS011;6306;47.134;15.344;2023-02-22T09:42:49;5.30;;;4.27;;
12482;SDS011;6306;47.134;15.344;2023-02-22T09:45:22;12.87;;;6.10;;
12482;SDS011;6306;47.134;15.344;2023-02-22T09:47:51;7.77;;;5.10;;
12482;SDS011;6306;47.134;15.344;2023-02-22T09:50:24;10.67;;;5.50;;
12482;SDS011;6306;47.134;15.344;2023-02-22T09:53:19;9.13;;;6.17;;
12482;SDS011;6306;47.134;15.344;2023-02-22T09:55:53;6.67;;;5.40;;
12482;SDS011;6306;47.134;15.344;2023-02-22T09:58:23;8.50;;;5.80;;
12482;SDS011;6306;47.134;15.344;2023-02-22T10:00:50;6.30;;;4.67;;
12482;SDS011;6306;47.134;15.344;2023-02-22T10:05:54;12.33;;;5.93;;
12482;SDS011;6306;47.134;15.344;2023-02-22T10:08:23;9.30;;;6.13;;
12482;SDS011;6306;47.134;15.344;2023-02-22T10:10:58;9.23;;;5.60;;
12482;SDS011;6306;47.134;15.344;2023-02-22T10:13:36;9.23;;;5.43;;
12482;SDS011;6306;47.134;15.344;2023-02-22T10:18:54;7.30;;;5.40;;
12482;SDS011;6306;47.134;15.344;2023-02-22T10:21:32;6.40;;;5.20;;
12482;SDS011;6306;47.134;15.344;2023-02-22T10:26:31;7.30;;;5.20;;
12482;SDS011;6306;47.134;15.344;2023-02-22T10:29:02;7.53;;;5.20;;
12482;SDS011;6306;47.134;15.344;2023-02-22T10:31:31;7.37;;;4.80;;
12482;SDS011;6306;47.134;15.344;2023-02-22T10:34:01;5.90;;;5.00;;
12482;SDS011;6306;47.134;15.344;2023-02-22T10:36:28;7.33;;;4.83;;
12482;SDS011;6306;47.134;15.344;2023-02-22T10:38:57;7.97;;;4.20;;
12482;SDS011;6306;47.134;15.344;2023-02-22T10:41:30;8.27;;;3.87;;
12482;SDS011;6306;47.134;15.344;2023-02-22T10:43:57;7.30;;;4.47;;
12482;SDS011;6306;47.134;15.344;2023-02-22T10:46:24;15.27;;;5.10;;
12482;SDS011;6306;47.134;15.344;2023-02-22T10:48:52;11.97;;;4.60;;
12482;SDS011;6306;47.134;15.344;2023-02-22T10:51:20;8.53;;;4.37;;
12482;SDS011;6306;47.134;15.344;2023-02-22T10:53:52;9.93;;;5.50;;
12482;SDS011;6306;47.134;15.344;2023-02-22T10:56:20;10.37;;;5.70;;
12482;SDS011;6306;47.134;15.344;2023-02-22T10:58:54;6.67;;;5.30;;
12482;SDS011;6306;47.134;15.344;2023-02-22T11:04:14;7.30;;;5.00;;
12482;SDS011;6306;47.134;15.344;2023-02-22T11:06:42;8.13;;;5.67;;
12482;SDS011;6306;47.134;15.344;2023-02-22T11:09:11;10.00;;;5.60;;
12482;SDS011;6306;47.134;15.344;2023-02-22T11:11:42;13.60;;;6.17;;
12482;SDS011;6306;47.134;15.344;2023-02-22T11:14:08;8.47;;;5.50;;
12482;SDS011;6306;47.134;15.344;2023-02-22T11:16:39;8.40;;;7.37;;
12482;SDS011;6306;47.134;15.344;2023-02-22T11:21:33;7.70;;;6.47;;
12482;SDS011;6306;47.134;15.344;2023-02-22T11:24:03;9.03;;;6.37;;
12482;SDS011;6306;47.134;15.344;2023-02-22T11:26:35;12.43;;;6.50;;
12482;SDS011;6306;47.134;15.344;2023-02-22T11:29:07;8.43;;;5.80;;
12482;SDS011;6306;47.134;15.344;2023-02-22T11:31:39;16.70;;;6.90;;
12482;SDS011;6306;47.134;15.344;2023-02-22T11:34:06;6.83;;;4.93;;
12482;SDS011;6306;47.134;15.344;2023-02-22T11:36:39;10.40;;;5.33;;
12482;SDS011;6306;47.134;15.344;2023-02-22T11:39:10;10.17;;;5.80;;
12482;SDS011;6306;47.134;15.344;2023-02-22T11:41:45;10.00;;;6.17;;
12482;SDS011;6306;47.134;15.344;2023-02-22T11:44:30;10.57;;;6.83;;
12482;SDS011;6306;47.134;15.344;2023-02-22T11:47:08;9.00;;;6.07;;
12482;SDS011;6306;47.134;15.344;2023-02-22T11:49:53;9.83;;;5.50;;
12482;SDS011;6306;47.134;15.344;2023-02-22T11:52:31;10.17;;;6.07;;
12482;SDS011;6306;47.134;15.344;2023-02-22T11:55:07;9.40;;;6.03;;
12482;SDS011;6306;47.134;15.344;2023-02-22T12:08:38;8.30;;;5.17;;
12482;SDS011;6306;47.134;15.344;2023-02-22T12:16:02;12.67;;;7.27;;
12482;SDS011;6306;47.134;15.344;2023-02-22T12:18:32;9.43;;;6.00;;
12482;SDS011;6306;47.134;15.344;2023-02-22T12:21:01;9.70;;;6.50;;
12482;SDS011;6306;47.134;15.344;2023-02-22T12:23:39;12.23;;;7.50;;
12482;SDS011;6306;47.134;15.344;2023-02-22T12:28:42;8.73;;;7.10;;
12482;SDS011;6306;47.134;15.344;2023-02-22T12:31:19;11.17;;;7.27;;
12482;SDS011;6306;47.134;15.344;2023-02-22T12:33:58;9.63;;;5.57;;
12482;SDS011;6306;47.134;15.344;2023-02-22T12:36:29;11.30;;;6.00;;
12482;SDS011;6306;47.134;15.344;2023-02-22T12:38:58;11.40;;;7.20;;
12482;SDS011;6306;47.134;15.344;2023-02-22T12:41:30;10.23;;;6.23;;
12482;SDS011;6306;47.134;15.344;2023-02-22T12:44:01;12.03;;;6.80;;
12482;SDS011;6306;47.134;15.344;2023-02-22T12:46:33;9.23;;;5.73;;
12482;SDS011;6306;47.134;15.344;2023-02-22T12:49:14;10.43;;;6.20;;
12482;SDS011;6306;47.134;15.344;2023-02-22T12:59:32;11.50;;;5.70;;
12482;SDS011;6306;47.134;15.344;2023-02-22T13:02:02;12.20;;;7.40;;
12482;SDS011;6306;47.134;15.344;2023-02-22T13:04:34;12.13;;;6.70;;
12482;SDS011;6306;47.134;15.344;2023-02-22T13:07:17;9.77;;;6.27;;
12482;SDS011;6306;47.134;15.344;2023-02-22T13:10:30;9.20;;;5.93;;
12482;SDS011;6306;47.134;15.344;2023-02-22T13:15:09;8.40;;;5.83;;
12482;SDS011;6306;47.134;15.344;2023-02-22T13:20:11;11.07;;;6.20;;
12482;SDS011;6306;47.134;15.344;2023-02-22T13:22:41;13.47;;;6.90;;
12482;SDS011;6306;47.134;15.344;2023-02-22T13:25:23;9.07;;;6.13;;
12482;SDS011;6306;47.134;15.344;2023-02-22T13:30:28;9.67;;;5.30;;
12482;SDS011;6306;47.134;15.344;2023-02-22T13:33:09;9.10;;;6.53;;
12482;SDS011;6306;47.134;15.344;2023-02-22T13:38:32;11.70;;;7.47;;
12482;SDS011;6306;47.134;15.344;2023-02-22T13:48:40;10.97;;;6.90;;
12482;SDS011;6306;47.134;15.344;2023-02-22T13:51:18;10.10;;;6.90;;
12482;SDS011;6306;47.134;15.344;2023-02-22T13:53:53;17.10;;;5.60;;
12482;SDS011;6306;47.134;15.344;2023-02-22T13:56:24;10.67;;;6.17;;
12482;SDS011;6306;47.134;15.344;2023-02-22T13:58:51;6.40;;;5.07;;
12482;SDS011;6306;47.134;15.344;2023-02-22T14:06:43;8.90;;;5.37;;
12482;SDS011;6306;47.134;15.344;2023-02-22T14:09:18;12.23;;;5.43;;
12482;SDS011;6306;47.134;15.344;2023-02-22T14:11:59;8.70;;;6.13;;
12482;SDS011;6306;47.134;15.344;2023-02-22T14:14:25;8.87;;;4.50;;
12482;SDS011;6306;47.134;15.344;2023-02-22T14:22:40;11.67;;;5.87;;
12482;SDS011;6306;47.134;15.344;2023-02-22T14:25:30;7.67;;;5.80;;
12482;SDS011;6306;47.134;15.344;2023-02-22T14:27:53;7.60;;;4.90;;
12482;SDS011;6306;47.134;15.344;2023-02-22T14:30:22;6.60;;;5.27;;
12482;SDS011;6306;47.134;15.344;2023-02-22T14:32:50;6.67;;;4.77;;
12482;SDS011;6306;47.134;15.344;2023-02-22T14:35:16;11.80;;;6.30;;
12482;SDS011;6306;47.134;15.344;2023-02-22T14:37:43;8.60;;;4.67;;
12482;SDS011;6306;47.134;15.344;2023-02-22T14:43:14;7.93;;;4.87;;
12482;SDS011;6306;47.134;15.344;2023-02-22T14:45:40;8.33;;;4.80;;
12482;SDS011;6306;47.134;15.344;2023-02-22T14:51:01;9.33;;;5.57;;
12482;SDS011;6306;47.134;15.344;2023-02-22T14:53:40;7.97;;;5.20;;
12482;SDS011;6306;47.134;15.344;2023-02-22T14:56:31;7.50;;;5.60;;
12482;SDS011;6306;47.134;15.344;2023-02-22T15:01:34;9.00;;;5.77;;
12482;SDS011;6306;47.134;15.344;2023-02-22T15:06:46;7.87;;;5.70;;
12482;SDS011;6306;47.134;15.344;2023-02-22T15:09:16;5.87;;;5.17;;
12482;SDS011;6306;47.134;15.344;2023-02-22T15:11:49;6.80;;;4.77;;
12482;SDS011;6306;47.134;15.344;2023-02-22T15:14:18;8.73;;;5.70;;
12482;SDS011;6306;47.134;15.344;2023-02-22T15:16:49;7.40;;;5.43;;
12482;SDS011;6306;47.134;15.344;2023-02-22T15:19:18;9.20;;;5.10;;
12482;SDS011;6306;47.134;15.344;2023-02-22T15:21:49;10.20;;;6.40;;
12482;SDS011;6306;47.134;15.344;2023-02-22T15:24:20;6.80;;;4.53;;
12482;SDS011;6306;47.134;15.344;2023-02-22T15:26:47;12.40;;;6.00;;
12482;SDS011;6306;47.134;15.344;2023-02-22T15:31:40;10.20;;;4.97;;
12482;SDS011;6306;47.134;15.344;2023-02-22T15:36:42;13.40;;;4.83;;
12482;SDS011;6306;47.134;15.344;2023-02-22T15:39:18;9.00;;;5.83;;
12482;SDS011;6306;47.134;15.344;2023-02-22T15:41:44;10.77;;;6.20;;
12482;SDS011;6306;47.134;15.344;2023-02-22T15:44:10;13.73;;;6.00;;
12482;SDS011;6306;47.134;15.344;2023-02-22T15:46:39;23.63;;;5.50;;
12482;SDS011;6306;47.134;15.344;2023-02-22T15:49:26;9.27;;;5.47;;
12482;SDS011;6306;47.134;15.344;2023-02-22T15:52:02;9.33;;;5.47;;
12482;SDS011;6306;47.134;15.344;2023-02-22T15:54:35;8.70;;;5.60;;
12482;SDS011;6306;47.134;15.344;2023-02-22T15:57:02;7.67;;;5.10;;
12482;SDS011;6306;47.134;15.344;2023-02-22T15:59:28;12.00;;;5.70;;
12482;SDS011;6306;47.134;15.344;2023-02-22T16:01:57;8.33;;;5.90;;
12482;SDS011;6306;47.134;15.344;2023-02-22T16:04:28;12.77;;;6.63;;
12482;SDS011;6306;47.134;15.344;2023-02-22T16:07:05;13.50;;;7.30;;
12482;SDS011;6306;47.134;15.344;2023-02-22T16:09:44;10.00;;;7.93;;
12482;SDS011;6306;47.134;15.344;2023-02-22T16:12:44;11.37;;;7.07;;
12482;SDS011;6306;47.134;15.344;2023-02-22T16:15:12;12.20;;;8.50;;
12482;SDS011;6306;47.134;15.344;2023-02-22T16:17:39;12.93;;;8.50;;
12482;SDS011;6306;47.134;15.344;2023-02-22T16:22:38;18.83;;;12.50;;
12482;SDS011;6306;47.134;15.344;2023-02-22T16:27:44;19.70;;;12.40;;
12482;SDS011;6306;47.134;15.344;2023-02-22T16:32:42;11.73;;;9.60;;
12482;SDS011;6306;47.134;15.344;2023-02-22T16:35:09;25.43;;;11.57;;
12482;SDS011;6306;47.134;15.344;2023-02-22T16:37:42;16.80;;;9.57;;
12482;SDS011;6306;47.134;15.344;2023-02-22T16:40:11;22.97;;;8.93;;
12482;SDS011;6306;47.134;15.344;2023-02-22T16:42:42;10.40;;;5.77;;
12482;SDS011;6306;47.134;15.344;2023-02-22T16:45:08;7.97;;;5.60;;
12482;SDS011;6306;47.134;15.344;2023-02-22T16:47:40;8.17;;;5.90;;
12482;SDS011;6306;47.134;15.344;2023-02-22T16:50:06;10.23;;;5.80;;
12482;SDS011;6306;47.134;15.344;2023-02-22T16:52:32;15.60;;;7.33;;
12482;SDS011;6306;47.134;15.344;2023-02-22T16:54:58;9.33;;;6.27;;
12482;SDS011;6306;47.134;15.344;2023-02-22T16:57:26;11.80;;;6.40;;
12482;SDS011;6306;47.134;15.344;2023-02-22T16:59:53;10.20;;;6.13;;
12482;SDS011;6306;47.134;15.344;2023-02-22T17:02:19;15.07;;;6.70;;
12482;SDS011;6306;47.134;15.344;2023-02-22T17:04:46;7.20;;;5.43;;
12482;SDS011;6306;47.134;15.344;2023-02-22T17:07:16;6.93;;;5.33;;